Time;durP1;ratioP1;P1;durP2;ratioP2;P2;SDS_P1;SDS_P2;PMS_P1;PMS_P2;Temp;Humidity;BMP_temperature;BMP_pressure;BME280_temperature;BME280_humidity;BME280_pressure;Samples;Min_cycle;Max_cycle;Signal;HPM_P1;HPM_P2
2022/05/18 00:02:42;;;;;;;4.25;1.52;;;;;;;18.52;48.24;100856.34;10508038;28;20190;-84
2022/05/18 00:07:44;;;;;;;6.63;1.50;;;;;;;18.80;46.98;100856.91;10525610;28;20205;-85
2022/05/18 00:12:49;;;;;;;4.53;2.03;;;;;;;19.24;45.61;100862.22;10531027;28;20232;-86
2022/05/18 00:17:51;;;;;;;4.10;2.17;;;;;;;18.97;46.27;100867.88;10508208;28;20210;-85
2022/05/18 00:22:58;;;;;;;6.38;2.20;;;;;;;19.40;45.30;100857.16;10507850;28;20308;-84
2022/05/18 00:28:01;;;;;;;5.95;1.98;;;;;;;19.57;44.49;100865.22;10507459;28;20533;-85
2022/05/18 00:33:05;;;;;;;6.32;2.42;;;;;;;19.38;47.38;100862.44;10524165;28;20503;-85
2022/05/18 00:38:08;;;;;;;5.22;2.58;;;;;;;19.15;47.56;100864.47;10524146;28;20255;-85
2022/05/18 00:43:19;;;;;;;4.97;2.55;;;;;;;19.23;46.84;100864.25;10507203;28;20191;-85
2022/05/18 00:48:21;;;;;;;4.28;1.65;;;;;;;19.05;45.30;100863.09;10508540;28;20198;-85
2022/05/18 00:53:28;;;;;;;4.25;1.65;;;;;;;18.70;46.38;100868.94;10530986;28;20506;-85
2022/05/18 00:58:35;;;;;;;3.88;1.65;;;;;;;19.25;44.70;100872.44;10564249;28;20199;-85
2022/05/18 01:03:41;;;;;;;5.15;1.98;;;;;;;19.02;44.96;100870.38;10547527;28;20183;-85
2022/05/18 01:08:52;;;;;;;3.63;1.80;;;;;;;19.29;44.09;100879.00;10530880;28;20256;-85
2022/05/18 01:13:54;;;;;;;5.63;1.55;;;;;;;18.70;45.17;100886.09;10513426;28;20240;-86
2022/05/18 01:18:57;;;;;;;4.82;2.28;;;;;;;18.82;45.13;100880.19;10546851;28;20229;-86
2022/05/18 01:24:06;;;;;;;4.20;2.10;;;;;;;18.71;45.25;100876.31;10513008;28;20715;-85
2022/05/18 01:29:09;;;;;;;4.50;1.70;;;;;;;18.80;44.80;100884.63;10513074;28;20240;-85
2022/05/18 01:34:12;;;;;;;4.22;1.90;;;;;;;18.69;45.05;100881.56;10513084;28;20210;-84
2022/05/18 01:39:35;;;;;;;5.60;1.67;;;;;;;18.64;44.94;100893.28;10512823;28;20191;-84
2022/05/18 01:44:39;;;;;;;3.90;1.70;;;;;;;18.52;45.21;100893.44;10529066;28;20190;-84
2022/05/18 01:49:43;;;;;;;2.97;1.85;;;;;;;18.12;45.66;100888.91;10512460;28;20183;-85
2022/05/18 01:54:46;;;;;;;3.92;1.65;;;;;;;18.43;45.11;100893.69;10511901;28;20214;-88
2022/05/18 01:59:48;;;;;;;2.03;1.37;;;;;;;18.06;45.65;100896.13;10531006;28;20190;-85
2022/05/18 02:04:51;;;;;;;6.10;1.98;;;;;;;18.30;45.29;100893.03;10516057;28;20495;-85
2022/05/18 02:09:53;;;;;;;4.22;1.55;;;;;;;17.97;45.54;100887.75;10529330;28;20190;-85
2022/05/18 02:14:55;;;;;;;3.67;1.77;;;;;;;18.25;44.58;100893.28;10527784;28;20256;-85
2022/05/18 02:19:59;;;;;;;5.43;1.75;;;;;;;18.30;45.02;100898.72;10545543;28;20202;-85
2022/05/18 02:25:01;;;;;;;3.15;1.35;;;;;;;18.31;44.22;100891.81;10510399;28;20219;-85
2022/05/18 02:30:05;;;;;;;3.13;1.25;;;;;;;18.23;44.18;100889.97;10510548;28;20487;-85
2022/05/18 02:35:07;;;;;;;3.30;1.60;;;;;;;18.20;44.17;100885.03;10510414;28;20206;-85
2022/05/18 02:40:10;;;;;;;3.72;1.30;;;;;;;18.12;43.93;100888.91;10527591;28;20208;-85
2022/05/18 02:45:13;;;;;;;1.98;1.63;;;;;;;18.54;43.25;100888.19;10510199;28;20583;-86
2022/05/18 02:50:15;;;;;;;2.70;1.55;;;;;;;18.61;43.24;100891.22;10526489;28;20187;-85
2022/05/18 03:00:39;;;;;;;4.95;1.55;;;;;;;18.82;42.52;100882.22;10528434;28;20194;-84
2022/05/18 03:05:42;;;;;;;5.28;1.92;;;;;;;18.40;43.78;100887.91;10528467;28;20242;-85
2022/05/18 03:10:44;;;;;;;5.10;1.33;;;;;;;18.84;42.33;100880.66;10567531;28;20190;-85
2022/05/18 03:15:47;;;;;;;3.50;1.52;;;;;;;18.68;42.98;100880.75;10567673;28;20205;-85
2022/05/18 03:26:11;;;;;;;3.38;1.70;;;;;;;18.83;42.54;100890.41;10569893;28;20217;-85
2022/05/18 03:31:13;;;;;;;3.70;1.65;;;;;;;18.66;42.68;100896.59;10530197;28;20199;-84
2022/05/18 03:36:17;;;;;;;2.63;1.25;;;;;;;18.96;42.15;100903.34;10543388;28;20342;-83
2022/05/18 03:41:20;;;;;;;5.85;1.92;;;;;;;18.96;42.23;100906.19;10507519;28;20245;-85
2022/05/18 03:46:23;;;;;;;4.47;1.80;;;;;;;18.71;42.88;100904.88;10543765;28;20238;-85
2022/05/18 03:51:26;;;;;;;2.60;1.83;;;;;;;19.03;42.08;100906.31;10566594;28;20197;-84
2022/05/18 03:56:29;;;;;;;3.45;1.80;;;;;;;18.93;42.09;100901.25;10566503;28;20271;-84
2022/05/18 04:01:32;;;;;;;3.45;1.80;;;;;;;18.35;43.63;100913.91;10547171;28;20247;-85
2022/05/18 04:06:34;;;;;;;2.05;1.58;;;;;;;18.75;43.08;100928.59;10524617;28;20639;-86
2022/05/18 04:11:36;;;;;;;3.85;2.03;;;;;;;18.31;43.75;100923.22;10524470;28;20232;-86
2022/05/18 04:16:38;;;;;;;3.90;1.60;;;;;;;18.81;43.32;100935.66;10540603;28;20226;-85
2022/05/18 04:21:41;;;;;;;3.05;1.83;;;;;;;18.99;42.51;100927.47;10524101;28;20603;-87
2022/05/18 04:26:43;;;;;;;4.60;1.83;;;;;;;18.95;42.85;100933.13;10530835;28;20230;-85
2022/05/18 04:31:45;;;;;;;3.10;1.95;;;;;;;18.90;42.53;100938.28;10526926;28;20652;-86
2022/05/18 04:36:48;;;;;;;5.00;2.28;;;;;;;19.11;42.65;100943.63;10536900;28;20194;-84
2022/05/18 04:41:51;;;;;;;3.42;1.88;;;;;;;19.34;42.03;100938.72;10567541;28;20186;-85
2022/05/18 04:46:58;;;;;;;2.38;1.63;;;;;;;19.21;42.53;100949.53;10566525;28;20835;-84
2022/05/18 04:52:01;;;;;;;2.90;1.65;;;;;;;19.31;42.09;100950.91;10567028;28;20200;-84
2022/05/18 04:57:04;;;;;;;3.47;1.55;;;;;;;18.96;43.19;100957.63;10539764;28;20199;-84
2022/05/18 05:02:06;;;;;;;5.47;2.15;;;;;;;19.32;42.61;100964.00;10507923;28;20191;-83
2022/05/18 05:07:10;;;;;;;4.25;1.90;;;;;;;19.01;43.12;100974.44;10523340;28;20195;-84
2022/05/18 05:12:13;;;;;;;2.78;1.77;;;;;;;19.42;42.31;100974.81;10530371;28;20195;-86
2022/05/18 05:17:15;;;;;;;2.83;1.67;;;;;;;19.67;41.94;100970.38;10529985;28;20201;-85
2022/05/18 05:22:17;;;;;;;4.10;2.00;;;;;;;19.63;41.92;100982.97;10536618;28;20248;-86
2022/05/18 05:27:19;;;;;;;3.67;2.25;;;;;;;19.99;41.35;100975.81;10513353;28;20226;-85
2022/05/18 05:32:22;;;;;;;2.55;1.50;;;;;;;20.18;40.76;100984.28;10513299;28;20214;-86
2022/05/18 05:37:24;;;;;;;2.50;1.63;;;;;;;20.02;40.88;100995.91;10512266;28;20541;-85
2022/05/18 05:42:26;;;;;;;3.60;1.98;;;;;;;20.35;40.28;100986.59;10512409;28;20187;-85
2022/05/18 05:47:29;;;;;;;6.65;1.73;;;;;;;19.95;41.09;100994.94;10512455;28;20268;-86
2022/05/18 05:52:31;;;;;;;2.10;1.40;;;;;;;20.17;40.47;100993.25;10528814;28;20268;-85
2022/05/18 05:57:34;;;;;;;1.83;1.30;;;;;;;20.58;39.43;100992.22;10528818;28;20579;-86
2022/05/18 06:02:36;;;;;;;3.20;1.23;;;;;;;20.50;39.99;100989.66;10528660;28;20247;-85
2022/05/18 06:07:38;;;;;;;4.28;1.30;;;;;;;19.91;41.22;100991.22;10528082;28;20202;-86
2022/05/18 06:12:41;;;;;;;3.13;1.38;;;;;;;20.68;39.58;100987.88;10511608;28;20224;-85
2022/05/18 06:17:44;;;;;;;3.70;1.58;;;;;;;20.35;40.42;100994.34;10494531;28;20214;-85
2022/05/18 06:22:46;;;;;;;5.90;1.45;;;;;;;21.00;39.15;100991.16;10510602;28;20271;-85
2022/05/18 06:27:48;;;;;;;3.38;1.65;;;;;;;20.67;39.38;100994.81;10545400;28;20571;-85
2022/05/18 06:32:50;;;;;;;3.97;1.35;;;;;;;20.31;40.45;100999.19;10510299;28;20271;-86
2022/05/18 06:37:52;;;;;;;3.88;1.45;;;;;;;21.19;38.82;100999.56;10510780;28;20248;-87
2022/05/18 06:42:56;;;;;;;3.22;1.30;;;;;;;20.56;39.32;100994.69;10527100;28;20236;-86
2022/05/18 06:47:58;;;;;;;3.40;1.23;;;;;;;21.38;38.01;101001.44;10525905;28;20194;-85
2022/05/18 06:53:00;;;;;;;2.95;1.33;;;;;;;22.20;37.21;100998.06;10526777;28;20202;-86
2022/05/18 06:58:02;;;;;;;2.85;1.50;;;;;;;22.05;37.02;100996.31;10510196;28;20599;-86
2022/05/18 07:03:05;;;;;;;5.80;1.48;;;;;;;22.11;37.51;100996.78;10527997;28;20237;-85
2022/05/18 07:08:08;;;;;;;3.22;1.42;;;;;;;22.73;36.96;101005.38;10509454;28;20251;-86
2022/05/18 07:13:16;;;;;;;5.95;1.92;;;;;;;21.75;36.46;101007.94;10526088;28;20228;-86
2022/05/18 07:18:19;;;;;;;2.05;1.33;;;;;;;22.08;35.86;101017.66;10510460;28;20203;-86
2022/05/18 07:23:22;;;;;;;4.32;1.60;;;;;;;22.22;36.55;101020.66;10508882;28;20292;-86
2022/05/18 07:28:25;;;;;;;2.13;1.23;;;;;;;22.60;36.52;101009.81;10542278;28;20190;-85
2022/05/18 07:33:27;;;;;;;5.80;1.75;;;;;;;22.43;36.33;101003.53;10508958;28;20236;-86
2022/05/18 07:38:31;;;;;;;3.13;1.70;;;;;;;23.24;34.66;100993.69;10525445;28;20187;-85
2022/05/18 07:43:41;;;;;;;3.30;1.23;;;;;;;22.95;35.42;100992.72;10509366;28;20247;-85
2022/05/18 07:48:43;;;;;;;3.70;1.35;;;;;;;23.56;34.09;100999.47;10542733;28;20578;-86
2022/05/18 07:53:46;;;;;;;1.70;1.27;;;;;;;23.10;33.84;101008.84;10525113;28;20538;-86
2022/05/18 07:58:48;;;;;;;4.57;1.33;;;;;;;23.63;34.05;100999.50;10512405;28;20195;-86
2022/05/18 08:03:50;;;;;;;2.95;0.93;;;;;;;23.06;34.78;101010.84;10500137;28;20190;-86
2022/05/18 08:08:54;;;;;;;4.82;1.13;;;;;;;23.20;34.36;101010.09;10516767;28;20205;-86
2022/05/18 08:19:17;;;;;;;2.65;1.30;;;;;;;23.55;33.28;101015.09;10518434;28;20350;-85
2022/05/18 08:24:20;;;;;;;2.33;1.15;;;;;;;24.42;32.73;101009.78;10515740;28;20215;-89
2022/05/18 08:29:22;;;;;;;4.78;1.40;;;;;;;23.84;34.74;101013.91;10532153;28;20648;-87
2022/05/18 08:34:24;;;;;;;3.53;1.33;;;;;;;24.54;33.10;101012.22;10515606;28;20210;-86
2022/05/18 08:39:27;;;;;;;3.80;1.40;;;;;;;24.39;32.62;101018.44;10531829;28;20248;-86
2022/05/18 08:44:32;;;;;;;1.77;1.02;;;;;;;24.07;33.16;101013.50;10564625;28;20212;-86
2022/05/18 08:49:55;;;;;;;1.35;0.98;;;;;;;23.68;33.44;101027.88;10531388;28;20187;-86
2022/05/18 08:55:27;;;;;;;1.55;1.00;;;;;;;25.48;31.36;101019.25;10514287;28;20222;-87
2022/05/18 09:00:36;;;;;;;1.65;1.17;;;;;;;24.68;31.93;101025.75;10548887;28;20183;-87
2022/05/18 09:05:56;;;;;;;1.92;0.90;;;;;;;25.14;30.79;101025.59;10513869;28;20232;-86
2022/05/18 09:11:06;;;;;;;3.20;1.20;;;;;;;24.92;31.38;101024.06;10513509;28;20190;-86
2022/05/18 09:16:17;;;;;;;2.83;1.17;;;;;;;25.66;30.57;101009.22;10529988;28;20214;-86
2022/05/18 09:21:41;;;;;;;3.47;1.20;;;;;;;26.05;30.59;101022.53;10546665;28;20267;-86
2022/05/18 09:26:56;;;;;;;1.95;1.27;;;;;;;25.69;29.86;101021.97;10529409;28;20214;-86
2022/05/18 09:31:58;;;;;;;4.68;1.25;;;;;;;26.06;30.38;101024.19;10547693;28;20521;-86
2022/05/18 09:37:26;;;;;;;3.67;1.20;;;;;;;26.05;29.06;101029.13;10529277;28;20218;-86
2022/05/18 09:42:34;;;;;;;3.80;1.30;;;;;;;26.58;28.56;101024.91;10529181;28;20667;-85
2022/05/18 09:47:56;;;;;;;3.80;1.30;;;;;;;26.75;29.50;101015.22;10529456;28;20204;-86
2022/05/18 09:52:59;;;;;;;1.95;1.02;;;;;;;26.73;28.29;101017.72;10545951;28;20187;-86
2022/05/18 09:58:14;;;;;;;7.10;1.60;;;;;;;25.72;28.97;101016.19;10528968;28;20217;-87
2022/05/18 10:08:44;;;;;;;2.00;1.50;;;;;;;27.11;27.65;101006.09;10531399;28;20187;-86
2022/05/18 10:14:00;;;;;;;2.80;1.40;;;;;;;25.87;28.11;101011.16;10511680;28;20210;-86
2022/05/18 10:19:03;;;;;;;2.28;1.25;;;;;;;26.51;27.33;101009.72;10527791;28;20268;-86
2022/05/18 10:24:27;;;;;;;4.82;1.33;;;;;;;26.12;26.94;101016.69;10527596;28;20253;-86
2022/05/18 10:29:29;;;;;;;3.55;1.75;;;;;;;27.08;25.99;100995.38;10534598;28;20291;-87
2022/05/18 10:34:33;;;;;;;3.92;1.30;;;;;;;26.58;26.29;101000.97;10494162;28;20515;-86
2022/05/18 10:39:36;;;;;;;2.45;1.50;;;;;;;26.29;27.67;100997.56;10526545;28;20255;-86
2022/05/18 10:44:38;;;;;;;1.70;1.27;;;;;;;26.95;26.37;100988.53;10509972;28;20183;-86
2022/05/18 10:49:41;;;;;;;2.58;1.30;;;;;;;27.12;26.83;100975.91;10510208;28;20195;-87
2022/05/18 10:54:58;;;;;;;1.42;1.20;;;;;;;26.93;25.70;100976.56;10543217;28;20211;-86
2022/05/18 11:00:10;;;;;;;3.10;1.27;;;;;;;28.00;25.40;100967.91;10493647;28;20190;-86
2022/05/18 11:05:15;;;;;;;3.70;1.40;;;;;;;27.32;24.48;100962.41;10526070;28;20663;-85
2022/05/18 11:10:18;;;;;;;1.90;1.45;;;;;;;28.11;25.74;100962.72;10509622;28;20199;-86
2022/05/18 11:15:27;;;;;;;2.97;1.33;;;;;;;28.01;24.86;100955.06;10509416;28;20211;-86
2022/05/18 11:20:42;;;;;;;4.78;1.50;;;;;;;28.07;26.23;100956.22;10509156;28;20211;-87
2022/05/18 11:26:22;;;;;;;1.88;1.35;;;;;;;29.05;23.23;100945.09;10526151;28;20218;-86
2022/05/18 11:32:12;;;;;;;4.07;1.23;;;;;;;27.78;24.87;100949.28;10528149;28;20479;-86
2022/05/18 11:37:40;;;;;;;1.48;1.17;;;;;;;27.83;24.96;100943.00;10542069;28;20232;-86
2022/05/18 11:43:29;;;;;;;1.42;0.88;;;;;;;28.75;23.60;100949.91;10508733;28;20529;-86
2022/05/18 11:48:47;;;;;;;2.65;0.98;;;;;;;27.91;26.34;100940.78;10526808;28;20191;-87
2022/05/18 11:53:57;;;;;;;1.35;0.98;;;;;;;29.44;24.28;100939.22;10509122;28;20194;-87
2022/05/18 12:04:33;;;;;;;1.25;0.85;;;;;;;28.40;23.95;100939.03;10508898;28;20483;-86
2022/05/18 12:10:03;;;;;;;2.88;1.30;;;;;;;28.25;23.43;100937.66;10525228;28;20191;-87
2022/05/18 12:15:10;;;;;;;3.67;0.90;;;;;;;28.45;23.38;100933.53;10541403;28;20219;-86
2022/05/18 12:20:21;;;;;;;1.48;1.00;;;;;;;28.24;23.61;100924.44;10508343;28;20338;-86
2022/05/18 12:25:25;;;;;;;2.28;1.20;;;;;;;28.19;23.35;100928.66;10507903;28;20219;-86
2022/05/18 12:30:30;;;;;;;1.48;0.73;;;;;;;29.39;22.63;100924.44;10507877;28;20264;-86
2022/05/18 12:35:35;;;;;;;2.15;1.08;;;;;;;27.99;23.95;100925.69;10491399;28;20214;-86
2022/05/18 12:41:13;;;;;;;3.28;0.95;;;;;;;29.48;22.08;100919.63;10507920;28;20190;-88
2022/05/18 12:46:15;;;;;;;2.67;1.00;;;;;;;28.23;23.23;100923.63;10512167;28;20198;-85
2022/05/18 12:51:26;;;;;;;2.60;0.90;;;;;;;29.10;22.24;100912.66;10548471;28;20191;-86
2022/05/18 12:56:35;;;;;;;2.60;0.90;;;;;;;29.32;22.97;100925.41;10514556;28;20666;-86
2022/05/18 13:01:40;;;;;;;1.58;0.80;;;;;;;29.00;22.78;100911.66;10531109;28;20195;-85
2022/05/18 13:06:49;;;;;;;1.17;0.82;;;;;;;28.61;22.14;100924.09;10530504;28;20194;-86
2022/05/18 13:12:10;;;;;;;2.55;1.13;;;;;;;29.00;21.95;100916.63;10513931;28;20249;-87
2022/05/18 13:17:14;;;;;;;1.83;0.68;;;;;;;29.23;22.05;100910.72;10530431;28;20210;-87
2022/05/18 13:22:17;;;;;;;7.72;1.15;;;;;;;30.28;21.26;100905.47;10513579;28;20721;-87
2022/05/18 13:27:31;;;;;;;1.90;0.90;;;;;;;29.50;22.61;100902.56;10547777;28;20218;-87
2022/05/18 13:32:34;;;;;;;2.03;0.80;;;;;;;28.78;22.72;100902.59;10513381;28;20195;-86
2022/05/18 13:37:37;;;;;;;7.45;1.80;;;;;;;28.64;22.89;100902.06;10512926;28;20279;-87
2022/05/18 13:42:59;;;;;;;1.25;0.77;;;;;;;29.87;22.54;100903.28;10560966;28;20187;-87
2022/05/18 13:48:09;;;;;;;1.35;0.80;;;;;;;29.24;21.83;100889.13;10512746;28;20194;-86
2022/05/18 13:53:34;;;;;;;3.08;1.23;;;;;;;29.55;23.16;100893.28;10532387;28;20644;-86
2022/05/18 13:58:41;;;;;;;3.53;1.27;;;;;;;29.16;22.54;100881.81;10528678;28;20646;-86
2022/05/18 14:03:44;;;;;;;1.65;0.65;;;;;;;28.63;21.62;100883.81;10528157;28;20198;-86
2022/05/18 14:08:54;;;;;;;2.22;0.85;;;;;;;29.08;22.22;100886.16;10527739;28;20195;-86
2022/05/18 14:14:00;;;;;;;2.33;1.10;;;;;;;28.67;23.07;100883.75;10528604;28;20471;-87
2022/05/18 14:19:28;;;;;;;2.40;1.05;;;;;;;28.33;24.03;100881.19;10536766;28;20564;-86
2022/05/18 14:24:53;;;;;;;4.80;1.00;;;;;;;28.46;24.29;100879.25;10528705;28;20523;-89
2022/05/18 14:29:58;;;;;;;2.75;0.82;;;;;;;28.14;23.20;100874.91;10535982;28;20202;-86
2022/05/18 14:35:02;;;;;;;3.33;1.33;;;;;;;29.03;23.55;100873.00;10519763;28;20259;-87
2022/05/18 14:40:07;;;;;;;4.22;1.00;;;;;;;28.40;23.09;100875.22;10555606;28;20199;-89
2022/05/18 14:45:13;;;;;;;4.15;1.00;;;;;;;29.54;24.16;100865.50;10527504;28;20178;-86
2022/05/18 14:50:19;;;;;;;2.15;0.93;;;;;;;28.79;23.57;100863.59;10542973;28;20198;-87
2022/05/18 14:55:36;;;;;;;3.15;0.93;;;;;;;29.51;22.98;100866.44;10543099;28;20275;-86
2022/05/18 15:00:40;;;;;;;1.35;1.05;;;;;;;28.53;23.91;100858.78;10526406;28;20244;-88
2022/05/18 15:05:45;;;;;;;3.20;1.30;;;;;;;29.72;22.33;100850.53;10524870;28;20229;-87
2022/05/18 15:10:54;;;;;;;2.67;0.95;;;;;;;29.66;23.19;100848.63;10525405;28;20190;-87
2022/05/18 15:15:59;;;;;;;1.75;0.93;;;;;;;29.98;22.91;100847.75;10492568;28;20618;-86
2022/05/18 15:21:07;;;;;;;0.98;0.90;;;;;;;28.77;23.06;100848.72;10542731;28;20206;-85
2022/05/18 15:26:16;;;;;;;2.00;1.10;;;;;;;28.47;23.46;100849.00;10541612;28;20248;-85
2022/05/18 15:31:40;;;;;;;1.48;1.00;;;;;;;28.40;23.37;100846.22;10550079;28;20201;-87
2022/05/18 15:36:43;;;;;;;2.25;0.70;;;;;;;29.75;23.18;100854.63;10491530;28;20267;-87
2022/05/18 15:41:47;;;;;;;2.72;1.40;;;;;;;28.72;23.28;100849.28;10521610;28;20329;-86
2022/05/18 15:46:53;;;;;;;1.75;0.88;;;;;;;28.67;23.04;100843.97;10566909;28;20200;-89
2022/05/18 15:51:57;;;;;;;2.08;1.17;;;;;;;28.90;23.20;100840.13;10567054;28;20182;-87
2022/05/18 15:56:59;;;;;;;1.95;0.82;;;;;;;29.32;22.42;100840.38;10549328;28;20266;-84
2022/05/18 16:02:01;;;;;;;1.70;0.85;;;;;;;28.41;23.26;100847.88;10566722;28;20189;-85
2022/05/18 16:07:04;;;;;;;3.80;1.30;;;;;;;29.16;22.27;100838.25;10550412;28;20182;-87
2022/05/18 16:12:07;;;;;;;3.50;1.00;;;;;;;28.65;22.31;100840.69;10566053;28;20193;-88
2022/05/18 16:17:10;;;;;;;2.13;0.90;;;;;;;28.66;22.39;100836.53;10566426;28;20213;-85
2022/05/18 16:22:13;;;;;;;2.15;0.70;;;;;;;27.99;22.90;100832.97;10579418;28;20186;-84
2022/05/18 16:27:37;;;;;;;2.08;1.05;;;;;;;27.99;22.41;100835.88;10573723;28;20189;-85
2022/05/18 16:32:39;;;;;;;3.97;0.93;;;;;;;27.72;23.40;100829.34;10575007;28;20194;-85
2022/05/18 16:37:41;;;;;;;2.15;1.25;;;;;;;27.49;23.03;100838.06;10577785;28;20222;-86
2022/05/18 16:42:43;;;;;;;2.10;0.70;;;;;;;28.50;22.56;100821.97;10531779;28;20232;-87
2022/05/18 16:47:46;;;;;;;1.45;0.85;;;;;;;28.29;22.91;100816.66;10515540;28;20226;-86
2022/05/18 16:52:50;;;;;;;3.75;2.10;;;;;;;29.23;22.92;100812.00;10531947;28;20183;-86
2022/05/18 16:57:53;;;;;;;2.55;1.00;;;;;;;29.20;23.33;100812.91;10549710;28;20675;-87
2022/05/18 17:02:56;;;;;;;3.88;0.80;;;;;;;28.25;23.32;100821.72;10531564;28;20190;-85
2022/05/18 17:13:23;;;;;;;2.05;0.90;;;;;;;28.95;23.78;100819.28;10541854;28;20190;-89
2022/05/18 17:18:25;;;;;;;2.65;1.10;;;;;;;28.99;22.91;100814.22;10530608;28;20240;-89
2022/05/18 17:23:29;;;;;;;4.03;1.05;;;;;;;28.91;23.58;100812.75;10547921;28;20264;-89
2022/05/18 17:28:36;;;;;;;2.88;0.98;;;;;;;29.10;23.03;100819.75;10538418;28;20215;-88
2022/05/18 17:33:38;;;;;;;2.88;0.77;;;;;;;29.27;22.88;100811.88;10529580;28;20591;-87
2022/05/18 17:38:46;;;;;;;6.05;1.23;;;;;;;29.31;24.44;100813.44;10530726;28;20210;-86
2022/05/18 17:43:49;;;;;;;3.70;0.90;;;;;;;28.95;25.27;100812.69;10546153;28;20186;-86
2022/05/18 17:48:51;;;;;;;2.95;1.20;;;;;;;28.82;25.51;100816.28;10529019;28;20271;-88
2022/05/18 17:53:53;;;;;;;3.00;0.90;;;;;;;28.69;26.11;100812.44;10514900;28;20197;-88
2022/05/18 17:58:56;;;;;;;4.03;1.17;;;;;;;28.85;26.14;100806.69;10536649;28;20241;-87
2022/05/18 18:03:59;;;;;;;5.10;1.55;;;;;;;28.19;27.47;100814.78;10533319;28;20495;-87
2022/05/18 18:09:02;;;;;;;1.63;1.20;;;;;;;28.33;27.52;100811.63;10527670;28;20195;-86
2022/05/18 18:14:07;;;;;;;3.25;1.40;;;;;;;28.55;26.95;100809.03;10527432;28;20190;-89
2022/05/18 18:19:10;;;;;;;3.25;1.45;;;;;;;28.46;27.77;100812.56;10510077;28;20210;-87
2022/05/18 18:24:17;;;;;;;2.67;1.50;;;;;;;28.34;28.17;100808.28;10528065;28;20210;-86
2022/05/18 18:29:23;;;;;;;6.18;1.60;;;;;;;28.37;28.51;100806.53;10543814;28;20191;-87
2022/05/18 18:34:25;;;;;;;3.38;1.70;;;;;;;27.81;29.46;100815.16;10514628;28;20255;-88
2022/05/18 18:39:37;;;;;;;2.97;1.70;;;;;;;27.53;29.74;100812.75;10547933;28;20206;-88
2022/05/18 18:44:44;;;;;;;8.02;2.40;;;;;;;27.61;29.99;100808.47;10545042;28;20195;-90
2022/05/18 18:49:46;;;;;;;5.50;3.17;;;;;;;27.44;30.03;100810.44;10545434;28;20239;-89
2022/05/18 18:54:58;;;;;;;4.40;2.00;;;;;;;27.22;28.87;100809.13;10528664;28;20240;-86
2022/05/18 19:00:02;;;;;;;9.50;2.33;;;;;;;26.73;29.25;100815.28;10527880;28;20255;-87
2022/05/18 19:05:13;;;;;;;5.50;1.83;;;;;;;26.40;29.88;100816.19;10528287;28;20190;-88
2022/05/18 19:10:18;;;;;;;3.17;2.00;;;;;;;26.66;29.49;100815.41;10528982;28;20204;-87
2022/05/18 19:15:23;;;;;;;3.35;2.03;;;;;;;26.66;29.37;100815.41;10545944;28;20247;-87
2022/05/18 19:20:30;;;;;;;4.72;2.05;;;;;;;26.49;29.43;100822.25;10544612;28;20685;-90
2022/05/18 19:25:35;;;;;;;2.38;1.60;;;;;;;26.47;29.47;100824.75;10510997;28;20276;-88
2022/05/18 19:30:38;;;;;;;3.25;1.48;;;;;;;26.79;29.08;100823.50;10526371;28;20536;-87
2022/05/18 19:35:41;;;;;;;3.20;1.63;;;;;;;27.27;28.66;100821.06;10525762;28;20190;-86
2022/05/18 19:40:43;;;;;;;2.20;1.60;;;;;;;27.25;28.88;100825.63;10542833;28;20216;-89
2022/05/18 19:45:45;;;;;;;3.08;1.77;;;;;;;27.15;30.07;100827.47;10526319;28;20529;-90
2022/05/18 19:50:48;;;;;;;6.47;2.08;;;;;;;26.81;30.09;100832.53;10526001;28;20467;-86
2022/05/18 19:55:50;;;;;;;3.70;2.17;;;;;;;26.91;30.01;100822.91;10515492;28;20195;-85
2022/05/18 20:00:53;;;;;;;4.22;2.30;;;;;;;26.56;30.71;100830.81;10517354;28;20187;-85
2022/05/18 20:05:55;;;;;;;4.15;2.45;;;;;;;26.54;30.72;100826.72;10533815;28;20620;-85
2022/05/18 20:10:57;;;;;;;4.60;2.00;;;;;;;26.62;30.84;100825.38;10550310;28;20591;-84
2022/05/18 20:16:00;;;;;;;7.85;2.50;;;;;;;26.41;31.74;100826.47;10533921;28;20205;-87
2022/05/18 20:21:04;;;;;;;6.70;2.55;;;;;;;26.33;31.43;100825.75;10516532;28;20499;-85
2022/05/18 20:26:21;;;;;;;4.15;2.65;;;;;;;26.12;32.08;100828.09;10550405;28;20237;-87
2022/05/18 20:31:24;;;;;;;3.65;2.50;;;;;;;26.27;31.88;100820.91;10544255;28;20186;-87
2022/05/18 20:36:26;;;;;;;7.47;2.95;;;;;;;25.81;32.64;100828.03;10552472;28;20671;-87
2022/05/18 20:41:29;;;;;;;2.85;2.53;;;;;;;25.91;32.46;100824.19;10499837;28;20195;-84
2022/05/18 20:46:32;;;;;;;7.68;2.70;;;;;;;25.78;32.42;100834.66;10531886;28;20659;-86
2022/05/18 20:51:36;;;;;;;3.05;2.10;;;;;;;24.93;33.18;100832.50;10531982;28;20245;-84
2022/05/18 20:56:39;;;;;;;3.53;2.28;;;;;;;25.39;32.93;100834.19;10532075;28;20210;-87
2022/05/18 21:01:42;;;;;;;4.25;2.83;;;;;;;24.99;34.45;100825.00;10531961;28;20256;-85
2022/05/18 21:06:44;;;;;;;4.93;2.70;;;;;;;24.50;35.43;100824.06;10530856;28;20183;-85
2022/05/18 21:11:47;;;;;;;2.65;2.33;;;;;;;24.29;36.07;100830.78;10547582;28;20216;-85
2022/05/18 21:16:52;;;;;;;10.30;2.97;;;;;;;24.07;36.42;100834.16;10530730;28;20222;-86
2022/05/18 21:22:05;;;;;;;6.00;2.85;;;;;;;24.20;35.99;100836.16;10531523;28;20202;-89
2022/05/18 21:27:16;;;;;;;6.75;3.08;;;;;;;23.88;36.67;100839.13;10547452;28;20215;-86
2022/05/18 21:32:18;;;;;;;7.75;3.28;;;;;;;23.94;36.19;100843.19;10531032;28;20517;-85
2022/05/18 21:37:21;;;;;;;6.57;3.17;;;;;;;24.00;36.98;100846.50;10529914;28;20679;-88
2022/05/18 21:42:27;;;;;;;4.30;2.90;;;;;;;24.12;34.85;100837.41;10530177;28;20179;-87
2022/05/18 21:47:30;;;;;;;11.25;2.63;;;;;;;23.66;36.30;100848.22;10513454;28;20178;-88
2022/05/18 21:52:34;;;;;;;5.32;3.40;;;;;;;23.69;37.42;100839.56;10530111;28;20194;-87
2022/05/18 21:57:51;;;;;;;5.20;3.15;;;;;;;23.92;36.44;100837.06;10529949;28;20244;-88
2022/05/18 22:02:53;;;;;;;9.55;2.83;;;;;;;23.97;35.50;100847.31;10530371;28;20242;-87
2022/05/18 22:07:56;;;;;;;6.47;2.25;;;;;;;24.64;32.00;100838.41;10530737;28;20175;-89
2022/05/18 22:12:59;;;;;;;3.47;2.13;;;;;;;25.04;32.16;100836.09;10529347;28;20182;-89
2022/05/18 22:18:01;;;;;;;4.20;2.53;;;;;;;24.98;32.80;100832.03;10529317;28;20214;-88
2022/05/18 22:23:04;;;;;;;4.15;1.95;;;;;;;24.66;32.73;100843.75;10511878;28;20230;-88
2022/05/18 22:28:08;;;;;;;3.60;2.05;;;;;;;24.66;32.54;100838.81;10546208;28;20475;-88
2022/05/18 22:33:10;;;;;;;4.75;2.15;;;;;;;25.10;31.42;100837.31;10528597;28;20183;-88
2022/05/18 22:38:13;;;;;;;3.38;2.15;;;;;;;24.86;31.38;100832.53;10527831;28;20222;-88
2022/05/18 22:43:23;;;;;;;3.05;2.00;;;;;;;24.96;31.36;100828.75;10511059;28;20187;-88
2022/05/18 22:48:26;;;;;;;2.83;2.17;;;;;;;25.25;30.96;100817.81;10528062;28;20182;-91
2022/05/18 22:53:29;;;;;;;4.63;2.63;;;;;;;24.83;32.02;100819.78;10527932;28;20190;-86
2022/05/18 22:58:34;;;;;;;7.72;1.95;;;;;;;24.38;32.63;100821.66;10528220;28;20549;-86
2022/05/18 23:03:36;;;;;;;7.35;1.80;;;;;;;24.78;32.09;100816.53;10528041;28;20240;-88
2022/05/18 23:08:38;;;;;;;4.57;2.22;;;;;;;24.00;34.05;100809.06;10527585;28;20395;-88
2022/05/18 23:13:41;;;;;;;3.70;2.33;;;;;;;24.32;33.27;100788.78;10527742;28;20200;-88
2022/05/18 23:18:43;;;;;;;3.30;2.35;;;;;;;24.62;32.81;100791.06;10544776;28;20206;-87
2022/05/18 23:23:46;;;;;;;10.45;2.42;;;;;;;24.12;33.90;100790.50;10527864;28;20240;-88
2022/05/18 23:29:08;;;;;;;2.40;2.00;;;;;;;23.79;34.18;100786.13;10543216;28;20182;-86
2022/05/18 23:34:10;;;;;;;8.88;2.55;;;;;;;23.94;34.08;100782.75;10525476;28;20225;-88
2022/05/18 23:39:12;;;;;;;5.05;2.53;;;;;;;23.72;34.02;100778.31;10525956;28;20349;-88
2022/05/18 23:44:15;;;;;;;5.03;2.63;;;;;;;23.71;34.17;100770.91;10525314;28;20491;-87
2022/05/18 23:49:22;;;;;;;5.78;2.28;;;;;;;23.16;34.56;100774.25;10526047;28;20216;-88
2022/05/18 23:54:25;;;;;;;2.95;2.15;;;;;;;23.72;34.04;100766.78;10540400;28;20183;-87
2022/05/18 23:59:48;;;;;;;2.95;2.60;;;;;;;23.49;33.76;100758.59;10525149;28;20647;-87
